createdAt,value
2019-05-30T00:01:48.211Z,1.50
2019-05-30T00:04:31.130Z,1.53
2019-05-30T00:07:21.524Z,1.60
2019-05-30T00:10:05.214Z,1.83
2019-05-30T00:12:58.567Z,2.00
2019-05-30T00:16:02.907Z,1.67
2019-05-30T00:18:46.227Z,1.90
2019-05-30T00:21:36.624Z,1.90
2019-05-30T00:24:19.882Z,1.50
2019-05-30T00:27:10.326Z,1.87
2019-05-30T00:29:53.627Z,1.77
2019-05-30T00:32:44.023Z,1.63
2019-05-30T00:35:26.997Z,1.50
2019-05-30T00:38:17.415Z,1.50
2019-05-30T00:41:00.582Z,1.23
2019-05-30T00:43:50.979Z,1.50
2019-05-30T00:46:33.741Z,1.30
2019-05-30T00:49:24.171Z,1.30
2019-05-30T00:52:27.108Z,1.40
2019-05-30T00:55:17.500Z,1.60
2019-05-30T00:58:01.026Z,1.60
2019-05-30T01:00:51.478Z,1.20
2019-05-30T01:03:34.841Z,1.43
2019-05-30T01:06:38.026Z,1.53
2019-05-30T01:09:29.928Z,1.30
2019-05-30T01:12:20.348Z,1.43
2019-05-30T01:18:40.159Z,1.50
2019-05-30T01:21:22.972Z,1.40
2019-05-30T01:24:13.364Z,1.57
2019-05-30T01:26:57.159Z,1.50
2019-05-30T01:29:47.559Z,1.50
2019-05-30T01:32:31.080Z,1.53
2019-05-30T01:35:21.525Z,1.40
2019-05-30T01:38:06.063Z,1.53
2019-05-30T01:40:57.647Z,1.47
2019-05-30T01:44:01.846Z,1.63
2019-05-30T01:46:52.340Z,1.43
2019-05-30T01:49:35.004Z,1.60
2019-05-30T01:52:25.412Z,1.77
2019-05-30T01:55:09.050Z,1.90
2019-05-30T01:58:01.570Z,1.70
2019-05-30T02:01:18.961Z,1.73
2019-05-30T02:03:56.060Z,1.70
2019-05-30T02:06:39.235Z,1.60
2019-05-30T02:09:29.653Z,1.70
2019-05-30T02:12:13.240Z,1.77
2019-05-30T02:15:03.691Z,1.57
2019-05-30T02:17:47.315Z,1.60
2019-05-30T02:20:37.709Z,1.87
2019-05-30T02:23:20.357Z,1.67
2019-05-30T02:26:10.813Z,1.80
2019-05-30T02:28:53.583Z,1.80
2019-05-30T02:31:39.330Z,1.97
2019-05-30T02:34:28.751Z,1.70
2019-05-30T02:37:12.887Z,1.60
2019-05-30T02:40:07.078Z,1.67
2019-05-30T02:43:09.800Z,1.63
2019-05-30T02:46:00.936Z,2.10
2019-05-30T02:49:06.587Z,1.93
2019-05-30T02:51:49.594Z,1.70
2019-05-30T02:54:39.956Z,1.90
2019-05-30T02:57:23.408Z,1.87
2019-05-30T03:00:17.684Z,1.90
2019-05-30T03:03:18.878Z,1.93
2019-05-30T03:06:11.178Z,1.73
2019-05-30T03:09:13.895Z,1.77
2019-05-30T03:12:06.377Z,2.10
2019-05-30T03:15:12.338Z,2.00
2019-05-30T03:18:02.394Z,1.77
2019-05-30T03:21:08.587Z,1.80
2019-05-30T03:23:51.112Z,2.03
2019-05-30T03:26:41.615Z,1.80
2019-05-30T03:29:24.624Z,1.90
2019-05-30T03:35:19.004Z,1.90
2019-05-30T03:38:00.747Z,1.90
2019-05-30T03:40:51.345Z,1.90
2019-05-30T03:43:54.118Z,2.17
2019-05-30T03:47:06.315Z,1.80
2019-05-30T03:50:12.423Z,1.90
2019-05-30T03:53:04.584Z,1.70
2019-05-30T03:56:11.589Z,1.63
2019-05-30T03:59:39.882Z,1.87
2019-05-30T04:02:27.878Z,2.03
2019-05-30T04:05:59.489Z,1.80
2019-05-30T04:08:43.586Z,2.07
2019-05-30T04:12:14.976Z,1.90
2019-05-30T04:15:38.194Z,1.93
2019-05-30T04:18:20.925Z,2.20
2019-05-30T04:21:13.342Z,1.90
2019-05-30T04:24:16.388Z,1.80
2019-05-30T04:27:25.798Z,2.00
2019-05-30T04:30:09.857Z,1.80
2019-05-30T04:33:17.188Z,2.00
2019-05-30T04:36:03.664Z,1.93
2019-05-30T04:38:54.083Z,2.20
2019-05-30T04:41:36.625Z,1.83
2019-05-30T04:47:29.071Z,2.07
2019-05-30T04:50:20.685Z,2.03
2019-05-30T04:53:24.532Z,2.00
2019-05-30T04:56:16.861Z,2.07
2019-05-30T04:59:20.335Z,2.00
2019-05-30T05:02:13.543Z,1.73
2019-05-30T05:05:22.590Z,2.10
2019-05-30T05:08:09.061Z,2.10
2019-05-30T05:10:51.909Z,1.90
2019-05-30T05:13:42.308Z,1.90
2019-05-30T05:16:34.808Z,2.00
2019-05-30T05:19:17.400Z,2.20
2019-05-30T05:22:27.731Z,1.73
2019-05-30T05:25:10.472Z,1.93
2019-05-30T05:28:00.867Z,2.07
2019-05-30T05:30:44.112Z,2.13
2019-05-30T05:33:34.497Z,1.80
2019-05-30T05:36:17.477Z,1.90
2019-05-30T05:42:16.184Z,2.00
2019-05-30T05:45:06.021Z,1.73
2019-05-30T05:48:08.543Z,1.60
2019-05-30T05:50:59.041Z,1.70
2019-05-30T05:53:41.819Z,1.67
2019-05-30T05:56:32.230Z,1.80
2019-05-30T05:59:16.878Z,1.43
2019-05-30T06:02:07.425Z,1.50
2019-05-30T06:04:50.544Z,1.80
2019-05-30T06:08:21.812Z,1.73
2019-05-30T06:11:04.893Z,1.30
2019-05-30T06:13:55.314Z,1.50
2019-05-30T06:16:38.118Z,1.43
2019-05-30T06:19:45.359Z,1.50
2019-05-30T06:22:33.864Z,1.37
2019-05-30T06:25:27.194Z,1.50
2019-05-30T06:28:28.647Z,1.40
2019-05-30T06:31:20.239Z,1.27
2019-05-30T06:34:34.831Z,1.00
2019-05-30T06:37:15.766Z,1.33
2019-05-30T06:39:58.602Z,1.30
2019-05-30T06:42:48.978Z,1.30
2019-05-30T06:45:31.957Z,1.17
2019-05-30T06:48:22.640Z,1.70
2019-05-30T06:51:27.046Z,1.40
2019-05-30T06:54:17.452Z,1.57
2019-05-30T06:57:00.254Z,1.60
2019-05-30T06:59:54.245Z,1.47
2019-05-30T07:02:37.615Z,1.63
2019-05-30T07:05:29.939Z,1.37
2019-05-30T07:08:33.051Z,1.50
2019-05-30T07:11:24.669Z,1.60
2019-05-30T07:14:27.762Z,2.10
2019-05-30T07:17:18.958Z,1.60
2019-05-30T07:20:06.070Z,1.60
2019-05-30T07:22:56.596Z,1.60
2019-05-30T07:25:39.989Z,1.63
2019-05-30T07:28:30.423Z,1.50
2019-05-30T07:31:13.334Z,1.80
2019-05-30T07:34:03.832Z,1.70
2019-05-30T07:37:06.443Z,2.10
2019-05-30T07:39:56.850Z,2.00
2019-05-30T07:42:39.858Z,2.20
2019-05-30T07:45:31.061Z,2.17
2019-05-30T07:48:34.616Z,1.97
2019-05-30T07:51:26.290Z,1.90
2019-05-30T07:54:31.000Z,2.10
2019-05-30T07:57:21.457Z,2.07
2019-05-30T08:00:04.897Z,2.20
2019-05-30T08:02:55.309Z,2.27
2019-05-30T08:05:45.722Z,2.10
2019-05-30T08:08:36.241Z,2.10
2019-05-30T08:11:19.439Z,2.37
2019-05-30T08:14:09.916Z,2.17
2019-05-30T08:16:53.025Z,2.00
2019-05-30T08:19:36.156Z,2.20
2019-05-30T08:22:27.877Z,2.37
2019-05-30T08:25:32.144Z,2.20
2019-05-30T08:31:32.683Z,2.70
2019-05-30T08:34:23.141Z,2.33
2019-05-30T08:37:25.775Z,2.70
2019-05-30T08:43:09.918Z,2.20
2019-05-30T08:46:00.316Z,2.33
2019-05-30T08:48:43.727Z,2.40
2019-05-30T08:51:34.220Z,2.37
2019-05-30T08:54:17.362Z,2.40
2019-05-30T08:57:07.787Z,2.40
2019-05-30T08:59:50.964Z,2.00
2019-05-30T09:02:41.310Z,2.40
2019-05-30T09:05:24.534Z,1.93
2019-05-30T09:08:14.972Z,2.00
2019-05-30T09:10:58.209Z,1.93
2019-05-30T09:13:48.605Z,2.10
2019-05-30T09:16:31.344Z,2.30
2019-05-30T09:19:21.725Z,2.30
2019-05-30T09:22:04.753Z,2.20
2019-05-30T09:24:55.136Z,2.67
2019-05-30T09:27:39.409Z,2.03
2019-05-30T09:30:30.700Z,2.30
2019-05-30T09:33:14.142Z,2.17
2019-05-30T09:36:13.379Z,2.90
2019-05-30T09:39:08.970Z,2.70
2019-05-30T09:41:59.390Z,2.37
2019-05-30T09:44:47.962Z,2.20
2019-05-30T09:47:36.628Z,2.40
2019-05-30T09:50:40.961Z,2.57
2019-05-30T09:53:31.580Z,2.60
2019-05-30T09:56:14.970Z,3.00
2019-05-30T09:59:05.392Z,2.80
2019-05-30T10:01:48.522Z,2.63
2019-05-30T10:04:38.946Z,2.93
2019-05-30T10:07:22.093Z,2.60
2019-05-30T10:10:12.874Z,3.27
2019-05-30T10:12:56.554Z,2.63
2019-05-30T10:15:40.127Z,3.00
2019-05-30T10:18:30.562Z,2.80
2019-05-30T10:21:13.162Z,3.23
2019-05-30T10:24:03.563Z,2.67
2019-05-30T10:26:47.225Z,2.80
2019-05-30T10:29:37.669Z,2.80
2019-05-30T10:32:20.348Z,2.70
2019-05-30T10:38:04.057Z,2.30
2019-05-30T10:40:54.475Z,2.80
2019-05-30T10:43:45.976Z,2.90
2019-05-30T10:46:50.791Z,2.80
2019-05-30T10:49:41.450Z,3.10
2019-05-30T10:52:24.157Z,3.53
2019-05-30T10:58:43.028Z,3.70
2019-05-30T11:01:53.063Z,3.33
2019-05-30T11:04:57.655Z,3.33
2019-05-30T11:08:10.850Z,3.13
2019-05-30T11:10:54.763Z,3.67
2019-05-30T11:13:45.295Z,3.83
2019-05-30T11:16:28.731Z,3.67
2019-05-30T11:19:12.165Z,3.33
2019-05-30T11:22:02.536Z,3.50
2019-05-30T11:24:45.194Z,3.23
2019-05-30T11:27:35.693Z,3.47
2019-05-30T11:30:18.838Z,8.97
2019-05-30T11:33:09.264Z,11.47
2019-05-30T11:35:55.137Z,4.47
2019-05-30T11:38:45.602Z,2.60
2019-05-30T11:41:28.938Z,2.80
2019-05-30T11:44:19.344Z,2.50
2019-05-30T11:47:02.812Z,2.50
2019-05-30T11:49:53.624Z,2.47
2019-05-30T11:53:01.852Z,3.20
2019-05-30T11:56:04.409Z,2.83
2019-05-30T11:58:55.926Z,2.90
2019-05-30T12:01:59.074Z,2.67
2019-05-30T12:04:50.495Z,2.53
2019-05-30T12:07:54.827Z,2.13
2019-05-30T12:10:45.355Z,2.20
2019-05-30T12:13:28.838Z,2.40
2019-05-30T12:16:19.254Z,2.20
2019-05-30T12:19:02.387Z,2.10
2019-05-30T12:21:53.548Z,3.00
2019-05-30T12:24:57.777Z,2.60
2019-05-30T12:27:48.549Z,2.60
2019-05-30T12:30:31.927Z,3.03
2019-05-30T12:33:22.371Z,2.97
2019-05-30T12:36:05.581Z,2.30
2019-05-30T12:42:06.705Z,2.27
2019-05-30T12:44:57.068Z,3.30
2019-05-30T12:47:39.753Z,2.73
2019-05-30T12:50:29.528Z,3.20
2019-05-30T12:53:12.521Z,2.53
2019-05-30T12:56:02.919Z,2.40
2019-05-30T12:58:46.004Z,5.50
2019-05-30T13:01:36.466Z,5.40
2019-05-30T13:04:20.084Z,3.37
2019-05-30T13:07:10.500Z,2.57
2019-05-30T13:09:54.972Z,2.80
2019-05-30T13:13:19.002Z,2.90
2019-05-30T13:16:09.194Z,2.60
2019-05-30T13:18:52.184Z,3.27
2019-05-30T13:21:42.648Z,2.93
2019-05-30T13:24:25.667Z,2.93
2019-05-30T13:27:16.128Z,2.70
2019-05-30T13:29:59.972Z,3.20
2019-05-30T13:32:50.416Z,4.00
2019-05-30T13:35:32.910Z,3.53
2019-05-30T13:38:26.324Z,3.13
2019-05-30T13:41:28.212Z,3.90
2019-05-30T13:44:18.595Z,3.93
2019-05-30T13:47:02.536Z,4.00
2019-05-30T13:49:52.961Z,3.87
2019-05-30T13:52:36.427Z,3.80
2019-05-30T13:55:28.287Z,3.13
2019-05-30T13:58:31.916Z,3.80
2019-05-30T14:01:22.375Z,4.00
2019-05-30T14:04:06.295Z,4.03
2019-05-30T14:06:56.792Z,3.87
2019-05-30T14:09:39.795Z,4.27
2019-05-30T14:12:30.314Z,4.30
2019-05-30T14:15:14.469Z,4.53
2019-05-30T14:18:05.144Z,4.70
2019-05-30T14:20:48.771Z,4.70
2019-05-30T14:23:39.150Z,4.50
2019-05-30T14:26:21.913Z,4.50
2019-05-30T14:29:12.327Z,5.03
2019-05-30T14:32:03.799Z,4.90
2019-05-30T14:35:08.344Z,4.83
2019-05-30T14:37:58.955Z,4.73
2019-05-30T14:40:42.485Z,4.80
2019-05-30T14:43:32.891Z,4.10
2019-05-30T14:46:16.671Z,4.70
2019-05-30T14:49:08.533Z,5.27
2019-05-30T14:52:12.126Z,4.93
2019-05-30T14:55:05.106Z,4.73
2019-05-30T14:58:09.144Z,4.73
2019-05-30T15:00:59.636Z,4.03
2019-05-30T15:03:43.006Z,4.43
2019-05-30T15:06:33.390Z,4.00
2019-05-30T15:09:25.508Z,4.27
2019-05-30T15:12:08.965Z,4.73
2019-05-30T15:14:52.228Z,4.60
2019-05-30T15:17:42.657Z,4.17
2019-05-30T15:20:25.933Z,4.13
2019-05-30T15:23:16.349Z,4.67
2019-05-30T15:25:59.641Z,5.20
2019-05-30T15:28:50.071Z,4.87
2019-05-30T15:31:33.413Z,5.03
2019-05-30T15:34:23.835Z,4.43
2019-05-30T15:37:06.709Z,4.47
2019-05-30T15:39:57.085Z,4.20
2019-05-30T15:42:47.534Z,3.70
2019-05-30T15:45:30.365Z,4.00
2019-05-30T15:48:20.749Z,4.47
2019-05-30T15:51:03.863Z,4.00
2019-05-30T15:53:54.245Z,3.90
2019-05-30T15:56:37.202Z,4.10
2019-05-30T15:59:27.649Z,3.80
2019-05-30T16:02:11.907Z,3.83
2019-05-30T16:05:02.472Z,3.87
2019-05-30T16:07:45.139Z,3.70
2019-05-30T16:10:36.895Z,4.10
2019-05-30T16:13:40.106Z,3.93
2019-05-30T16:16:39.422Z,3.90
2019-05-30T16:19:35.037Z,4.20
2019-05-30T16:22:25.480Z,3.80
2019-05-30T16:25:08.489Z,4.30
2019-05-30T16:27:58.906Z,4.10
2019-05-30T16:30:42.297Z,3.43
2019-05-30T16:33:32.702Z,4.00
2019-05-30T16:36:16.090Z,4.13
2019-05-30T16:40:04.077Z,4.10
2019-05-30T16:42:51.346Z,4.00
2019-05-30T16:45:41.753Z,3.70
2019-05-30T16:48:25.028Z,4.23
2019-05-30T16:51:16.583Z,3.77
2019-05-30T16:54:19.683Z,4.07
2019-05-30T16:57:10.090Z,3.60
2019-05-30T16:59:52.883Z,3.80
2019-05-30T17:02:43.355Z,3.77
2019-05-30T17:05:26.587Z,3.57
2019-05-30T17:08:18.071Z,3.40
2019-05-30T17:11:22.114Z,3.37
2019-05-30T17:14:12.575Z,5.90
2019-05-30T17:16:55.234Z,3.53
2019-05-30T17:19:45.719Z,3.40
2019-05-30T17:22:36.183Z,3.50
2019-05-30T17:25:19.315Z,3.27
2019-05-30T17:28:09.692Z,3.30
2019-05-30T17:30:52.747Z,3.20
2019-05-30T17:33:43.141Z,3.60
2019-05-30T17:36:26.267Z,3.13
2019-05-30T17:39:16.721Z,3.13
2019-05-30T17:41:59.823Z,3.10
2019-05-30T17:44:50.302Z,3.27
2019-05-30T17:47:33.117Z,3.80
2019-05-30T17:50:23.850Z,3.60
2019-05-30T17:53:07.112Z,3.17
2019-05-30T17:55:59.392Z,3.40
2019-05-30T17:59:02.469Z,3.27
2019-05-30T18:01:52.938Z,3.50
2019-05-30T18:04:36.127Z,3.30
2019-05-30T18:07:26.950Z,2.87
2019-05-30T18:10:31.816Z,3.10
2019-05-30T18:13:23.053Z,3.00
2019-05-30T18:16:27.142Z,2.90
2019-05-30T18:19:09.971Z,2.87
2019-05-30T18:21:53.147Z,2.63
2019-05-30T18:24:43.712Z,2.80
2019-05-30T18:27:26.362Z,2.90
2019-05-30T18:30:28.361Z,2.40
2019-05-30T18:33:18.855Z,2.80
2019-05-30T18:36:02.350Z,2.87
2019-05-30T18:38:52.755Z,2.70
2019-05-30T18:41:35.543Z,2.63
2019-05-30T18:44:28.844Z,2.50
2019-05-30T18:47:31.234Z,2.40
2019-05-30T18:50:23.083Z,2.50
2019-05-30T18:53:28.830Z,2.53
2019-05-30T18:56:19.293Z,2.40
2019-05-30T18:59:02.064Z,2.43
2019-05-30T19:01:52.540Z,2.40
2019-05-30T19:04:36.037Z,2.27
2019-05-30T19:07:26.768Z,2.20
2019-05-30T19:10:10.203Z,2.43
2019-05-30T19:13:00.603Z,2.30
2019-05-30T19:15:43.894Z,2.50
2019-05-30T19:18:39.657Z,2.40
2019-05-30T19:21:23.910Z,2.37
2019-05-30T19:24:14.301Z,2.30
2019-05-30T19:26:57.858Z,2.33
2019-05-30T19:29:48.373Z,2.57
2019-05-30T19:32:31.095Z,2.00
2019-05-30T19:35:21.521Z,2.30
2019-05-30T19:38:11.956Z,2.30
2019-05-30T19:40:54.799Z,2.30
2019-05-30T19:43:45.193Z,2.50
2019-05-30T19:46:28.612Z,2.43
2019-05-30T19:49:19.028Z,2.23
2019-05-30T19:52:02.492Z,2.10
2019-05-30T19:54:52.948Z,2.70
2019-05-30T19:57:35.771Z,2.10
2019-05-30T20:00:26.196Z,2.60
2019-05-30T20:03:09.640Z,2.40
2019-05-30T20:06:00.079Z,2.60
2019-05-30T20:08:54.509Z,2.20
2019-05-30T20:11:37.182Z,2.40
2019-05-30T20:14:41.305Z,2.43
2019-05-30T20:17:31.586Z,2.33
2019-05-30T20:20:50.374Z,2.20
2019-05-30T20:23:28.222Z,2.60
2019-05-30T20:26:11.557Z,2.50
2019-05-30T20:29:01.995Z,2.70
2019-05-30T20:31:45.778Z,2.60
2019-05-30T20:34:36.720Z,2.67
2019-05-30T20:37:40.906Z,2.60
2019-05-30T20:40:31.351Z,2.50
2019-05-30T20:43:14.200Z,2.73
2019-05-30T20:46:04.609Z,2.40
2019-05-30T20:48:54.991Z,2.73
2019-05-30T20:51:38.691Z,2.30
2019-05-30T20:54:29.982Z,2.30
2019-05-30T20:57:13.276Z,2.60
2019-05-30T21:00:03.970Z,2.53
2019-05-30T21:02:47.551Z,2.47
2019-05-30T21:05:38.153Z,3.13
2019-05-30T21:08:21.037Z,2.97
2019-05-30T21:11:31.886Z,2.80
2019-05-30T21:14:33.558Z,2.83
2019-05-30T21:17:45.907Z,2.50
2019-05-30T21:20:37.786Z,2.77
2019-05-30T21:23:49.902Z,2.53
2019-05-30T21:26:36.691Z,2.50
2019-05-30T21:29:33.443Z,2.40
2019-05-30T21:32:04.770Z,2.60
2019-05-30T21:34:55.151Z,2.53
2019-05-30T21:37:45.858Z,2.30
2019-05-30T21:40:49.855Z,2.37
2019-05-30T21:43:40.420Z,2.70
2019-05-30T21:46:23.520Z,2.50
2019-05-30T21:49:13.986Z,2.50
2019-05-30T21:51:57.251Z,2.60
2019-05-30T21:54:47.896Z,2.80
2019-05-30T21:57:38.289Z,2.63
2019-05-30T22:01:06.742Z,2.77
2019-05-30T22:03:51.000Z,2.93
2019-05-30T22:06:42.764Z,2.80
2019-05-30T22:09:47.330Z,2.87
2019-05-30T22:12:30.810Z,2.40
2019-05-30T22:15:13.797Z,2.20
2019-05-30T22:18:04.224Z,2.60
2019-05-30T22:20:47.992Z,2.70
2019-05-30T22:23:38.495Z,2.50
2019-05-30T22:26:21.001Z,2.50
2019-05-30T22:29:11.400Z,2.60
2019-05-30T22:32:01.795Z,2.50
2019-05-30T22:34:53.019Z,2.50
2019-05-30T22:37:56.613Z,2.30
2019-05-30T22:40:47.874Z,2.60
2019-05-30T22:43:52.917Z,2.27
2019-05-30T22:46:44.045Z,2.30
2019-05-30T22:49:48.696Z,2.30
2019-05-30T22:52:39.145Z,2.40
2019-05-30T22:55:22.653Z,2.40
2019-05-30T22:58:13.030Z,2.03
2019-05-30T23:00:56.556Z,2.20
2019-05-30T23:03:47.213Z,1.90
2019-05-30T23:06:52.348Z,2.50
2019-05-30T23:09:42.801Z,2.27
2019-05-30T23:12:26.183Z,2.00
2019-05-30T23:15:16.591Z,2.10
2019-05-30T23:17:59.601Z,2.17
2019-05-30T23:20:42.522Z,2.10
2019-05-30T23:23:32.911Z,2.27
2019-05-30T23:26:16.151Z,2.50
2019-05-30T23:29:06.554Z,1.93
2019-05-30T23:31:49.902Z,2.03
2019-05-30T23:34:40.395Z,2.23
2019-05-30T23:37:23.344Z,2.00
2019-05-30T23:43:55.198Z,2.03
2019-05-30T23:46:34.395Z,2.20
2019-05-30T23:49:24.808Z,2.10
2019-05-30T23:52:08.070Z,1.97
2019-05-30T23:54:58.451Z,2.13
2019-05-30T23:57:41.269Z,1.70
